createdAt,value
2022-12-23T00:00:45.096Z,16.38
2022-12-23T00:03:24.304Z,16.37
2022-12-23T00:05:52.271Z,16.38
2022-12-23T00:08:20.202Z,16.37
2022-12-23T00:10:49.524Z,16.38
2022-12-23T00:13:36.078Z,16.36
2022-12-23T00:16:09.518Z,16.35
2022-12-23T00:18:37.348Z,16.35
2022-12-23T00:21:10.535Z,16.34
2022-12-23T00:23:40.933Z,16.33
2022-12-23T00:26:21.885Z,16.34
2022-12-23T00:28:49.878Z,16.33
2022-12-23T00:31:18.833Z,16.32
2022-12-23T00:33:47.990Z,16.32
2022-12-23T00:36:25.659Z,16.31
2022-12-23T00:39:12.455Z,16.31
2022-12-23T00:41:58.575Z,16.31
2022-12-23T00:44:26.240Z,16.32
2022-12-23T00:46:54.007Z,16.36
2022-12-23T00:49:39.861Z,16.41
2022-12-23T00:52:10.080Z,16.47
2022-12-23T00:54:37.382Z,16.49
2022-12-23T00:57:05.101Z,16.53
2022-12-23T00:59:33.466Z,16.54
2022-12-23T01:02:19.993Z,16.53
2022-12-23T01:05:06.066Z,16.55
2022-12-23T01:07:33.660Z,16.52
2022-12-23T01:10:00.908Z,16.53
2022-12-23T01:12:28.618Z,16.55
2022-12-23T01:14:55.964Z,16.56
2022-12-23T01:17:23.757Z,16.55
2022-12-23T01:19:51.534Z,16.56
2022-12-23T01:22:19.066Z,16.57
2022-12-23T01:24:46.272Z,16.58
2022-12-23T01:27:13.825Z,16.56
2022-12-23T01:29:41.115Z,16.55
2022-12-23T01:32:08.736Z,16.58
2022-12-23T01:34:37.636Z,16.56
2022-12-23T01:37:05.947Z,16.56
2022-12-23T01:39:33.188Z,16.55
2022-12-23T01:42:22.739Z,16.55
2022-12-23T01:45:05.941Z,16.53
2022-12-23T01:47:42.323Z,16.53
2022-12-23T01:50:15.127Z,16.53
2022-12-23T01:53:09.638Z,16.53
2022-12-23T01:55:42.260Z,16.53
2022-12-23T01:58:45.862Z,16.52
2022-12-23T02:01:32.441Z,16.52
2022-12-23T02:04:05.245Z,16.51
2022-12-23T02:06:55.211Z,16.50
2022-12-23T02:09:24.570Z,16.50
2022-12-23T02:12:29.485Z,16.50
2022-12-23T02:15:25.429Z,16.49
2022-12-23T02:18:19.985Z,16.47
2022-12-23T02:21:34.637Z,16.47
2022-12-23T02:24:11.888Z,16.47
2022-12-23T02:27:15.191Z,16.46
2022-12-23T02:30:03.793Z,16.48
2022-12-23T02:32:49.712Z,16.45
2022-12-23T02:35:30.298Z,16.47
2022-12-23T02:37:57.706Z,16.45
2022-12-23T02:40:52.795Z,16.43
2022-12-23T02:43:23.898Z,16.42
2022-12-23T02:46:04.920Z,16.42
2022-12-23T02:48:56.646Z,16.44
2022-12-23T02:51:30.141Z,16.40
2022-12-23T02:54:02.272Z,16.40
2022-12-23T02:56:33.994Z,16.40
2022-12-23T02:59:21.913Z,16.41
2022-12-23T03:01:51.884Z,16.38
2022-12-23T03:04:19.639Z,16.38
2022-12-23T03:06:54.266Z,16.39
2022-12-23T03:09:27.209Z,16.38
2022-12-23T03:12:16.031Z,16.36
2022-12-23T03:15:11.763Z,16.36
2022-12-23T03:18:00.328Z,16.36
2022-12-23T03:20:50.139Z,16.34
2022-12-23T03:23:39.280Z,16.34
2022-12-23T03:26:23.419Z,16.34
2022-12-23T03:29:15.570Z,16.34
2022-12-23T03:31:45.479Z,16.33
2022-12-23T03:34:18.444Z,16.34
2022-12-23T03:36:51.463Z,16.33
2022-12-23T03:39:26.375Z,16.31
2022-12-23T03:42:01.935Z,16.32
2022-12-23T03:44:37.245Z,16.31
2022-12-23T03:47:07.599Z,16.31
2022-12-23T03:49:45.357Z,16.32
2022-12-23T03:52:21.205Z,16.32
2022-12-23T03:54:53.790Z,16.30
2022-12-23T03:57:58.830Z,16.29
2022-12-23T04:00:30.443Z,16.27
2022-12-23T04:03:10.673Z,16.27
2022-12-23T04:05:41.820Z,16.28
2022-12-23T04:08:18.655Z,16.27
2022-12-23T04:10:46.683Z,16.27
2022-12-23T04:13:14.308Z,16.27
2022-12-23T04:15:42.357Z,16.28
2022-12-23T04:18:11.366Z,16.31
2022-12-23T04:20:38.641Z,16.32
2022-12-23T04:23:06.373Z,16.32
2022-12-23T04:25:33.675Z,16.33
2022-12-23T04:28:01.351Z,16.33
2022-12-23T04:30:33.998Z,16.32
2022-12-23T04:33:03.191Z,16.33
2022-12-23T04:35:31.390Z,16.34
2022-12-23T04:37:58.986Z,16.32
2022-12-23T04:40:26.662Z,16.34
2022-12-23T04:42:54.188Z,16.33
2022-12-23T04:45:21.840Z,16.35
2022-12-23T04:47:49.945Z,16.33
2022-12-23T04:50:17.213Z,16.34
2022-12-23T04:52:44.754Z,16.33
2022-12-23T04:55:12.848Z,16.34
2022-12-23T04:57:40.446Z,16.35
2022-12-23T05:00:08.499Z,16.35
2022-12-23T05:02:36.306Z,16.35
2022-12-23T05:05:04.136Z,16.35
2022-12-23T05:07:32.380Z,16.34
2022-12-23T05:10:01.883Z,16.34
2022-12-23T05:12:31.178Z,16.31
2022-12-23T05:14:58.539Z,16.31
2022-12-23T05:17:26.808Z,16.31
2022-12-23T05:19:54.081Z,16.33
2022-12-23T05:22:21.614Z,16.35
2022-12-23T05:24:48.919Z,16.37
2022-12-23T05:27:16.475Z,16.42
2022-12-23T05:29:43.757Z,16.43
2022-12-23T05:32:11.463Z,16.43
2022-12-23T05:34:38.788Z,16.47
2022-12-23T05:37:06.689Z,16.44
2022-12-23T05:39:34.070Z,16.46
2022-12-23T05:42:01.584Z,16.45
2022-12-23T05:44:28.831Z,16.44
2022-12-23T05:46:56.515Z,16.45
2022-12-23T05:49:25.308Z,16.45
2022-12-23T05:51:52.871Z,16.47
2022-12-23T05:54:20.706Z,16.49
2022-12-23T05:56:48.262Z,16.50
2022-12-23T05:59:15.568Z,16.49
2022-12-23T06:01:44.134Z,16.52
2022-12-23T06:04:12.331Z,16.54
2022-12-23T06:06:39.978Z,16.58
2022-12-23T06:09:07.261Z,16.59
2022-12-23T06:11:34.840Z,16.60
2022-12-23T06:14:02.785Z,16.60
2022-12-23T06:16:30.483Z,16.60
2022-12-23T06:18:57.953Z,16.62
2022-12-23T06:21:25.588Z,16.61
2022-12-23T06:23:52.879Z,16.64
2022-12-23T06:26:20.651Z,16.63
2022-12-23T06:28:47.907Z,16.65
2022-12-23T06:31:15.882Z,16.65
2022-12-23T06:33:43.212Z,16.65
2022-12-23T06:36:10.838Z,16.67
2022-12-23T06:38:38.034Z,16.66
2022-12-23T06:41:05.694Z,16.66
2022-12-23T06:43:33.295Z,16.66
2022-12-23T06:46:01.184Z,16.65
2022-12-23T06:48:28.516Z,16.66
2022-12-23T06:50:56.235Z,16.66
2022-12-23T06:53:23.654Z,16.65
2022-12-23T06:55:59.910Z,16.66
2022-12-23T06:58:27.252Z,16.66
2022-12-23T07:00:55.255Z,16.66
2022-12-23T07:03:22.668Z,16.66
2022-12-23T07:05:51.110Z,16.66
2022-12-23T07:08:18.777Z,16.65
2022-12-23T07:10:46.465Z,16.65
2022-12-23T07:13:14.727Z,16.65
2022-12-23T07:15:42.337Z,16.65
2022-12-23T07:18:09.597Z,16.65
2022-12-23T07:20:37.500Z,16.67
2022-12-23T07:23:04.908Z,16.67
2022-12-23T07:25:32.438Z,16.68
2022-12-23T07:27:59.658Z,16.70
2022-12-23T07:30:27.426Z,16.69
2022-12-23T07:32:54.786Z,16.68
2022-12-23T07:35:22.680Z,16.70
2022-12-23T07:37:56.435Z,16.70
2022-12-23T07:40:25.758Z,16.69
2022-12-23T07:42:58.397Z,16.68
2022-12-23T07:45:27.547Z,16.68
2022-12-23T07:47:57.116Z,16.70
2022-12-23T07:50:25.712Z,16.69
2022-12-23T07:52:54.091Z,16.71
2022-12-23T07:55:22.149Z,16.70
2022-12-23T07:57:50.828Z,16.66
2022-12-23T08:00:19.542Z,16.65
2022-12-23T08:02:48.041Z,16.64
2022-12-23T08:05:16.956Z,16.64
2022-12-23T08:07:49.338Z,16.64
2022-12-23T08:10:17.018Z,16.63
2022-12-23T08:12:46.455Z,16.59
2022-12-23T08:15:14.123Z,16.57
2022-12-23T08:17:43.209Z,16.55
2022-12-23T08:20:11.122Z,16.54
2022-12-23T08:22:38.519Z,16.52
2022-12-23T08:25:06.735Z,16.51
2022-12-23T08:27:34.594Z,16.53
2022-12-23T08:30:02.607Z,16.52
2022-12-23T08:32:29.952Z,16.52
2022-12-23T08:34:57.657Z,16.53
2022-12-23T08:37:25.662Z,16.55
2022-12-23T08:39:53.209Z,16.56
2022-12-23T08:42:20.562Z,16.57
2022-12-23T08:44:48.240Z,16.58
2022-12-23T08:47:15.569Z,16.57
2022-12-23T08:49:43.237Z,16.58
2022-12-23T08:52:10.513Z,16.58
2022-12-23T08:54:38.124Z,16.59
2022-12-23T08:57:05.353Z,16.58
2022-12-23T08:59:32.931Z,16.59
2022-12-23T09:02:02.060Z,16.58
2022-12-23T09:04:29.807Z,16.58
2022-12-23T09:06:57.076Z,16.58
2022-12-23T09:09:24.683Z,16.60
2022-12-23T09:11:51.980Z,16.57
2022-12-23T09:14:19.612Z,16.57
2022-12-23T09:16:50.360Z,16.58
2022-12-23T09:19:18.102Z,16.59
2022-12-23T09:21:45.384Z,16.61
2022-12-23T09:24:12.706Z,16.65
2022-12-23T09:26:41.284Z,16.67
2022-12-23T12:20:21.606Z,17.81
2022-12-23T12:22:53.008Z,17.82
2022-12-23T12:25:26.097Z,17.82
2022-12-23T12:27:59.714Z,17.92
2022-12-23T12:30:35.199Z,17.91
2022-12-23T12:33:27.778Z,17.95
2022-12-23T12:36:11.188Z,17.86
2022-12-23T12:38:40.014Z,17.85
2022-12-23T12:41:11.363Z,17.85
2022-12-23T12:43:44.371Z,17.81
2022-12-23T12:46:28.112Z,17.80
2022-12-23T12:49:18.958Z,17.74
2022-12-23T12:52:16.142Z,17.68
2022-12-23T12:54:46.539Z,17.64
2022-12-23T12:57:20.174Z,17.58
2022-12-23T13:00:05.309Z,17.53
2022-12-23T13:03:12.074Z,17.50
2022-12-23T13:06:13.336Z,17.50
2022-12-23T13:09:10.868Z,17.48
2022-12-23T13:11:45.695Z,17.46
2022-12-23T13:14:45.349Z,17.44
2022-12-23T13:17:28.881Z,17.43
2022-12-23T13:20:10.392Z,17.43
2022-12-23T13:22:39.908Z,17.43
2022-12-23T13:25:49.968Z,17.43
2022-12-23T13:28:37.394Z,17.40
2022-12-23T13:31:23.059Z,17.45
2022-12-23T13:34:22.562Z,17.47
2022-12-23T13:37:07.667Z,17.46
2022-12-23T13:39:55.953Z,17.48
2022-12-23T13:42:31.115Z,17.48
2022-12-23T13:45:00.008Z,17.51
2022-12-23T13:48:10.663Z,17.52
2022-12-23T13:51:04.151Z,17.51
2022-12-23T13:54:04.526Z,17.53
2022-12-23T13:56:41.769Z,17.58
2022-12-23T13:59:11.665Z,17.60
2022-12-23T14:01:41.945Z,17.59
2022-12-23T14:04:34.806Z,17.63
2022-12-23T14:07:22.607Z,17.62
2022-12-23T14:09:57.223Z,17.64
2022-12-23T14:12:39.558Z,17.65
2022-12-23T14:15:26.135Z,17.67
2022-12-23T14:18:30.535Z,17.68
2022-12-23T14:21:07.156Z,17.69
2022-12-23T14:24:05.426Z,17.71
2022-12-23T14:26:57.851Z,17.69
2022-12-23T14:29:52.778Z,17.71
2022-12-23T14:32:25.259Z,17.68
2022-12-23T14:35:18.290Z,17.68
2022-12-23T14:38:08.159Z,17.67
2022-12-23T14:40:38.482Z,17.67
2022-12-23T14:43:27.703Z,17.69
2022-12-23T14:45:56.897Z,17.69
2022-12-23T14:48:33.337Z,17.68
2022-12-23T14:51:10.734Z,17.67
2022-12-23T14:54:00.091Z,17.68
2022-12-23T14:56:59.988Z,17.71
2022-12-23T14:59:40.768Z,17.67
2022-12-23T15:02:30.360Z,17.69
2022-12-23T15:04:59.135Z,17.69
2022-12-23T15:07:32.920Z,17.68
2022-12-23T15:10:05.877Z,17.68
2022-12-23T15:12:37.078Z,17.65
2022-12-23T15:15:28.095Z,17.65
2022-12-23T15:18:09.780Z,17.63
2022-12-23T15:20:37.610Z,17.63
2022-12-23T15:23:15.888Z,17.61
2022-12-23T15:25:48.835Z,17.61
2022-12-23T15:28:20.131Z,17.59
2022-12-23T15:30:52.364Z,17.61
2022-12-23T15:36:15.342Z,17.60
2022-12-23T15:38:42.723Z,17.64
2022-12-23T15:41:18.471Z,17.64
2022-12-23T15:43:46.194Z,17.66
2022-12-23T15:46:29.229Z,17.67
2022-12-23T15:48:58.228Z,17.66
2022-12-23T15:54:45.422Z,17.68
2022-12-23T15:57:19.278Z,17.68
2022-12-23T15:59:46.750Z,17.68
2022-12-23T16:05:37.594Z,17.68
2022-12-23T16:08:21.789Z,17.68
2022-12-23T16:11:03.539Z,17.66
2022-12-23T16:13:31.837Z,17.64
2022-12-23T16:16:18.793Z,17.63
2022-12-23T16:18:47.919Z,17.66
2022-12-23T16:21:15.933Z,17.63
2022-12-23T16:23:51.203Z,17.63
2022-12-23T16:26:19.808Z,17.64
2022-12-23T16:28:51.060Z,17.64
2022-12-23T16:31:20.304Z,17.64
2022-12-23T16:33:47.815Z,17.62
2022-12-23T16:36:27.014Z,17.64
2022-12-23T16:39:05.683Z,17.61
2022-12-23T16:41:33.730Z,17.61
2022-12-23T16:44:02.100Z,17.59
2022-12-23T16:46:37.336Z,17.59
2022-12-23T16:49:08.327Z,17.59
2022-12-23T16:51:37.899Z,17.60
2022-12-23T16:54:05.490Z,17.58
2022-12-23T16:56:36.002Z,17.55
2022-12-23T16:59:03.927Z,17.55
2022-12-23T17:01:34.754Z,17.58
2022-12-23T17:04:03.135Z,17.58
2022-12-23T17:06:30.535Z,17.61
2022-12-23T17:08:58.266Z,17.59
2022-12-23T17:11:29.030Z,17.60
2022-12-23T17:14:03.860Z,17.61
2022-12-23T17:16:33.944Z,17.61
2022-12-23T17:19:01.602Z,17.62
2022-12-23T17:21:31.018Z,17.66
2022-12-23T17:24:12.871Z,17.62
2022-12-23T17:26:40.153Z,17.62
2022-12-23T17:29:12.035Z,17.61
2022-12-23T17:31:42.023Z,17.65
2022-12-23T17:34:23.461Z,17.62
2022-12-23T17:36:51.455Z,17.63
2022-12-23T17:39:20.250Z,17.61
2022-12-23T17:41:48.495Z,17.62
2022-12-23T17:44:17.848Z,17.64
2022-12-23T17:46:46.602Z,17.64
2022-12-23T17:49:14.370Z,17.62
2022-12-23T17:51:42.758Z,17.61
2022-12-23T17:54:30.726Z,17.56
2022-12-23T17:56:58.132Z,17.55
2022-12-23T17:59:25.904Z,17.54
2022-12-23T18:01:54.202Z,17.53
2022-12-23T18:04:21.965Z,17.55
2022-12-23T18:06:49.378Z,17.53
2022-12-23T18:09:18.824Z,17.54
2022-12-23T18:11:47.466Z,17.51
2022-12-23T18:14:23.663Z,17.51
2022-12-23T18:16:50.937Z,17.47
2022-12-23T18:19:20.135Z,17.43
2022-12-23T18:21:48.001Z,17.40
2022-12-23T18:24:15.935Z,17.38
2022-12-23T18:26:43.574Z,17.33
2022-12-23T18:29:11.222Z,17.34
2022-12-23T18:31:50.997Z,17.31
2022-12-23T18:34:20.378Z,17.28
2022-12-23T18:36:48.318Z,17.25
2022-12-23T18:39:16.167Z,17.23
2022-12-23T18:41:43.480Z,17.22
2022-12-23T18:44:20.857Z,17.20
2022-12-23T18:46:48.949Z,17.19
2022-12-23T18:49:16.633Z,17.18
2022-12-23T18:51:43.875Z,17.17
2022-12-23T18:54:16.056Z,17.15
2022-12-23T18:56:43.816Z,17.14
2022-12-23T18:59:24.252Z,17.14
2022-12-23T19:01:57.499Z,17.13
2022-12-23T19:04:26.693Z,17.15
2022-12-23T19:06:55.887Z,17.12
2022-12-23T19:09:24.717Z,17.13
2022-12-23T19:11:53.529Z,17.09
2022-12-23T19:14:22.069Z,17.11
2022-12-23T19:16:51.932Z,17.10
2022-12-23T19:19:21.022Z,17.08
2022-12-23T19:21:48.780Z,17.08
2022-12-23T19:24:16.617Z,17.08
2022-12-23T19:26:43.888Z,17.08
2022-12-23T19:29:13.917Z,17.08
2022-12-23T19:31:41.314Z,17.06
2022-12-23T19:34:15.107Z,17.04
2022-12-23T19:36:43.615Z,17.05
2022-12-23T19:39:17.256Z,17.03
2022-12-23T19:41:45.678Z,17.02
2022-12-23T19:44:13.968Z,17.02
2022-12-23T19:46:41.736Z,17.03
2022-12-23T19:49:14.015Z,17.03
2022-12-23T19:51:45.188Z,17.02
2022-12-23T19:54:12.847Z,17.02
2022-12-23T19:56:40.968Z,17.02
2022-12-23T19:59:08.958Z,16.99
2022-12-23T20:01:36.239Z,17.01
2022-12-23T20:04:04.844Z,17.02
2022-12-23T20:06:34.744Z,17.03
2022-12-23T20:09:06.325Z,17.09
2022-12-23T20:11:42.202Z,17.10
2022-12-23T20:14:10.833Z,17.11
2022-12-23T20:16:39.365Z,17.11
2022-12-23T20:19:08.227Z,17.12
2022-12-23T20:21:38.491Z,17.11
2022-12-23T20:24:06.855Z,17.11
2022-12-23T20:26:34.331Z,17.12
2022-12-23T20:29:01.969Z,17.12
2022-12-23T20:31:31.689Z,17.13
2022-12-23T20:34:01.203Z,17.14
2022-12-23T20:36:31.719Z,17.14
2022-12-23T20:39:02.022Z,17.13
2022-12-23T20:41:31.496Z,17.12
2022-12-23T20:46:47.570Z,17.12
2022-12-23T20:49:15.274Z,17.13
2022-12-23T20:51:42.595Z,17.14
2022-12-23T20:54:10.270Z,17.13
2022-12-23T20:56:37.591Z,17.14
2022-12-23T20:59:05.293Z,17.14
2022-12-23T21:01:38.905Z,17.14
2022-12-23T21:04:09.701Z,17.11
2022-12-23T21:06:37.113Z,17.12
2022-12-23T21:09:06.745Z,17.14
2022-12-23T21:11:37.689Z,17.12
2022-12-23T21:14:07.449Z,17.14
2022-12-23T21:16:36.814Z,17.14
2022-12-23T21:19:08.409Z,17.17
2022-12-23T21:21:35.883Z,17.16
2022-12-23T21:24:05.075Z,17.16
2022-12-23T21:26:33.999Z,17.16
2022-12-23T21:29:04.491Z,17.14
2022-12-23T21:31:34.417Z,17.17
2022-12-23T21:34:02.540Z,17.17
2022-12-23T21:36:32.518Z,17.16
2022-12-23T21:39:00.654Z,17.16
2022-12-23T21:41:31.225Z,17.16
2022-12-23T21:44:00.155Z,17.16
2022-12-23T21:46:28.955Z,17.16
2022-12-23T21:48:58.674Z,17.16
2022-12-23T21:51:33.311Z,17.16
2022-12-23T21:54:07.294Z,17.16
2022-12-23T21:56:35.516Z,17.15
2022-12-23T21:59:10.214Z,17.16
2022-12-23T22:01:38.112Z,17.15
2022-12-23T22:04:06.217Z,17.15
2022-12-23T22:06:37.196Z,17.13
2022-12-23T22:09:06.635Z,17.15
2022-12-23T22:11:36.659Z,17.14
2022-12-23T22:14:06.690Z,17.12
2022-12-23T22:16:35.841Z,17.13
2022-12-23T22:19:04.951Z,17.13
2022-12-23T22:21:33.783Z,17.12
2022-12-23T22:24:02.854Z,17.13
2022-12-23T22:26:31.859Z,17.09
2022-12-23T22:29:01.991Z,17.06
2022-12-23T23:12:54.467Z,16.93
2022-12-23T23:15:22.079Z,16.93
2022-12-23T23:17:49.373Z,16.91
2022-12-23T23:20:17.038Z,16.92
2022-12-23T23:22:44.545Z,16.91
2022-12-23T23:25:12.127Z,16.90
2022-12-23T23:27:39.340Z,16.89
2022-12-23T23:30:07.495Z,16.89
2022-12-23T23:32:34.904Z,16.89
2022-12-23T23:35:08.711Z,16.89
2022-12-23T23:37:38.001Z,16.88
2022-12-23T23:40:06.428Z,16.86
2022-12-23T23:42:34.203Z,16.87
2022-12-23T23:45:01.860Z,16.86
2022-12-23T23:47:34.365Z,16.85
2022-12-23T23:50:03.831Z,16.84
2022-12-23T23:52:31.366Z,16.85
2022-12-23T23:54:58.936Z,16.86
2022-12-23T23:57:26.811Z,16.85
2022-12-23T23:59:54.399Z,16.83
